Waterloo Regional Airport
KALO : now visible

Airfield :











YOU CAN JOIN US ON...

 
LOGIN :

Register | Disclaimer

   EN    FR    IT 

 









Legend :    VFR   Marginal VFR   IFR   Intensive IFR   Very Intensive IFR
Visi :
Ceiling :
>= 8 km
>= 3000ft
5 to 8 km
1000 to 3000 ft
1500m to 5 km
500 to 1000 ft
800 to 1500m
200 to 500 ft
< 800m
< 200 ft
Symbols :   Thunderstorms  Fog  Heavy snow  Heavy precipitations  Wind > 20 kt






- Airport Elevation : 873 ft
- IATA code : ALO


KALO - Waterloo Regional

CURRENT METAR :
  • 282254Z 29008KT 10SM BKN100 18/10 A3008 RMK AO2 RAB33E42 SLP186 P0000 T01780100

EXPIRED METARs :
  • 282154Z 28009KT 10SM FEW095 19/12 A3008 RMK AO2 PK WND 31027/2116 RAB15E36 SLP186 P0001 T01940117
  • 282054Z 29007KT 10SM FEW044 SCT065 OVC095 17/12 A3008 RMK AO2 PK WND 34026/2033 RAB34E51 SLP186 P0001 60001 T01720117 53006
  • 281954Z 33015G21KT 10SM FEW047 BKN080 BKN095 19/09 A3007 RMK AO2 SLP183 T01890094
  • 281854Z 32012G20KT 10SM SCT041 SCT060 21/11 A3006 RMK AO2 SLP179 T02060111

TAF KALO
Valid from the 28 at 22:00 until the 29 at 18:00 UTC


282219Z 2822/2918 28009KT P6SM -SHRA BKN070
FM290000 34007KT P6SM SCT040
FM291500 02007KT P6SM SCT040
KZAU FIR / North America



MET'MAP, your aeronautical weather chart ! - Copyright ORBIFLY December 2007 - Disclaimer

ORBIFLY MET'MAP TEAM :

Programming & Development : Alexandra Zaïnal
Original concept : Baudouin d'Aumeries
Technical & hardware support : Manuel Goepfert
Assistance : Marc-Olivier Méhu




SOURCES & CREDITS :

   NOAA       Earth
Advisory